sensor_id;sensor_type;location;lat;lon;timestamp;P1;durP1;ratioP1;P2;durP2;ratioP2
64915;SDS011;51427;-27.442;153.014;2023-05-24T00:01:15;4.60;;;2.35;;
64915;SDS011;51427;-27.442;153.014;2023-05-24T00:03:50;5.50;;;1.98;;
64915;SDS011;51427;-27.442;153.014;2023-05-24T00:06:19;5.95;;;1.98;;
64915;SDS011;51427;-27.442;153.014;2023-05-24T00:08:47;7.97;;;2.50;;
64915;SDS011;51427;-27.442;153.014;2023-05-24T00:11:14;5.72;;;1.98;;
64915;SDS011;51427;-27.442;153.014;2023-05-24T00:13:42;6.20;;;2.00;;
64915;SDS011;51427;-27.442;153.014;2023-05-24T00:16:09;5.00;;;1.67;;
64915;SDS011;51427;-27.442;153.014;2023-05-24T00:18:37;7.63;;;1.98;;
64915;SDS011;51427;-27.442;153.014;2023-05-24T00:21:06;5.82;;;1.67;;
64915;SDS011;51427;-27.442;153.014;2023-05-24T00:23:34;4.85;;;1.90;;
64915;SDS011;51427;-27.442;153.014;2023-05-24T00:26:03;4.68;;;2.13;;
64915;SDS011;51427;-27.442;153.014;2023-05-24T00:28:31;4.25;;;2.05;;
64915;SDS011;51427;-27.442;153.014;2023-05-24T00:30:58;5.50;;;1.80;;
64915;SDS011;51427;-27.442;153.014;2023-05-24T00:33:26;7.10;;;2.13;;
64915;SDS011;51427;-27.442;153.014;2023-05-24T00:35:54;6.20;;;1.95;;
64915;SDS011;51427;-27.442;153.014;2023-05-24T00:38:22;5.10;;;2.35;;
64915;SDS011;51427;-27.442;153.014;2023-05-24T00:40:53;7.38;;;2.17;;
64915;SDS011;51427;-27.442;153.014;2023-05-24T00:43:21;3.28;;;1.70;;
64915;SDS011;51427;-27.442;153.014;2023-05-24T00:45:58;4.30;;;1.75;;
64915;SDS011;51427;-27.442;153.014;2023-05-24T00:48:34;3.60;;;1.90;;
64915;SDS011;51427;-27.442;153.014;2023-05-24T00:51:01;5.38;;;2.13;;
64915;SDS011;51427;-27.442;153.014;2023-05-24T00:53:29;7.35;;;1.85;;
64915;SDS011;51427;-27.442;153.014;2023-05-24T00:55:58;4.35;;;1.83;;
64915;SDS011;51427;-27.442;153.014;2023-05-24T00:58:26;2.67;;;1.80;;
64915;SDS011;51427;-27.442;153.014;2023-05-24T01:00:59;4.55;;;2.10;;
64915;SDS011;51427;-27.442;153.014;2023-05-24T01:03:28;5.53;;;2.00;;
64915;SDS011;51427;-27.442;153.014;2023-05-24T01:05:56;5.32;;;1.98;;
64915;SDS011;51427;-27.442;153.014;2023-05-24T01:30:06;7.75;;;1.70;;
64915;SDS011;51427;-27.442;153.014;2023-05-24T01:32:34;3.55;;;1.40;;
64915;SDS011;51427;-27.442;153.014;2023-05-24T01:35:03;6.32;;;1.60;;
64915;SDS011;51427;-27.442;153.014;2023-05-24T01:37:31;7.75;;;1.95;;
64915;SDS011;51427;-27.442;153.014;2023-05-24T01:39:59;7.25;;;1.75;;
64915;SDS011;51427;-27.442;153.014;2023-05-24T01:42:35;5.18;;;1.58;;
64915;SDS011;51427;-27.442;153.014;2023-05-24T01:50:52;1.95;;;1.30;;
64915;SDS011;51427;-27.442;153.014;2023-05-24T01:53:23;5.15;;;1.98;;
64915;SDS011;51427;-27.442;153.014;2023-05-24T01:56:07;4.38;;;1.50;;
64915;SDS011;51427;-27.442;153.014;2023-05-24T01:58:37;6.53;;;1.88;;
64915;SDS011;51427;-27.442;153.014;2023-05-24T02:01:07;5.55;;;1.67;;
64915;SDS011;51427;-27.442;153.014;2023-05-24T02:03:34;6.28;;;1.50;;
64915;SDS011;51427;-27.442;153.014;2023-05-24T02:06:05;3.22;;;1.40;;
64915;SDS011;51427;-27.442;153.014;2023-05-24T02:08:33;2.45;;;1.38;;
64915;SDS011;51427;-27.442;153.014;2023-05-24T02:11:00;2.95;;;1.50;;
64915;SDS011;51427;-27.442;153.014;2023-05-24T02:13:27;4.00;;;1.55;;
64915;SDS011;51427;-27.442;153.014;2023-05-24T02:15:54;3.30;;;1.30;;
64915;SDS011;51427;-27.442;153.014;2023-05-24T02:18:21;4.40;;;1.05;;
64915;SDS011;51427;-27.442;153.014;2023-05-24T02:20:49;3.35;;;1.48;;
64915;SDS011;51427;-27.442;153.014;2023-05-24T02:23:16;5.07;;;1.60;;
64915;SDS011;51427;-27.442;153.014;2023-05-24T02:25:43;4.30;;;1.42;;
64915;SDS011;51427;-27.442;153.014;2023-05-24T02:28:10;3.55;;;1.40;;
64915;SDS011;51427;-27.442;153.014;2023-05-24T02:30:37;5.97;;;1.55;;
64915;SDS011;51427;-27.442;153.014;2023-05-24T02:33:09;4.95;;;1.70;;
64915;SDS011;51427;-27.442;153.014;2023-05-24T02:35:36;5.22;;;2.15;;
64915;SDS011;51427;-27.442;153.014;2023-05-24T02:38:06;4.68;;;1.70;;
64915;SDS011;51427;-27.442;153.014;2023-05-24T02:40:34;4.78;;;1.70;;
64915;SDS011;51427;-27.442;153.014;2023-05-24T02:43:01;5.30;;;1.67;;
64915;SDS011;51427;-27.442;153.014;2023-05-24T02:45:28;5.88;;;1.95;;
64915;SDS011;51427;-27.442;153.014;2023-05-24T02:47:55;4.55;;;1.90;;
64915;SDS011;51427;-27.442;153.014;2023-05-24T02:50:23;3.83;;;1.70;;
64915;SDS011;51427;-27.442;153.014;2023-05-24T02:52:50;4.80;;;1.60;;
64915;SDS011;51427;-27.442;153.014;2023-05-24T02:55:17;3.90;;;1.70;;
64915;SDS011;51427;-27.442;153.014;2023-05-24T02:57:44;3.83;;;1.60;;
64915;SDS011;51427;-27.442;153.014;2023-05-24T03:00:13;7.15;;;2.72;;
64915;SDS011;51427;-27.442;153.014;2023-05-24T03:02:40;7.63;;;2.33;;
64915;SDS011;51427;-27.442;153.014;2023-05-24T03:05:08;4.05;;;2.05;;
64915;SDS011;51427;-27.442;153.014;2023-05-24T03:07:35;5.85;;;2.15;;
64915;SDS011;51427;-27.442;153.014;2023-05-24T03:10:02;5.97;;;2.17;;
64915;SDS011;51427;-27.442;153.014;2023-05-24T03:12:30;6.20;;;2.17;;
64915;SDS011;51427;-27.442;153.014;2023-05-24T03:14:57;7.50;;;2.80;;
64915;SDS011;51427;-27.442;153.014;2023-05-24T03:17:25;6.03;;;2.30;;
64915;SDS011;51427;-27.442;153.014;2023-05-24T03:19:52;4.43;;;2.13;;
64915;SDS011;51427;-27.442;153.014;2023-05-24T03:22:19;4.75;;;1.85;;
64915;SDS011;51427;-27.442;153.014;2023-05-24T03:24:46;5.78;;;2.22;;
64915;SDS011;51427;-27.442;153.014;2023-05-24T03:27:13;4.53;;;2.22;;
64915;SDS011;51427;-27.442;153.014;2023-05-24T03:29:40;4.57;;;1.88;;
64915;SDS011;51427;-27.442;153.014;2023-05-24T03:32:08;8.98;;;2.15;;
64915;SDS011;51427;-27.442;153.014;2023-05-24T03:34:35;5.88;;;2.03;;
64915;SDS011;51427;-27.442;153.014;2023-05-24T03:37:02;6.47;;;2.20;;
64915;SDS011;51427;-27.442;153.014;2023-05-24T03:39:30;4.25;;;2.60;;
64915;SDS011;51427;-27.442;153.014;2023-05-24T03:41:57;9.02;;;4.18;;
64915;SDS011;51427;-27.442;153.014;2023-05-24T03:44:24;5.70;;;2.63;;
64915;SDS011;51427;-27.442;153.014;2023-05-24T03:46:51;4.30;;;2.00;;
64915;SDS011;51427;-27.442;153.014;2023-05-24T03:49:19;5.50;;;2.60;;
64915;SDS011;51427;-27.442;153.014;2023-05-24T03:51:46;5.78;;;2.30;;
64915;SDS011;51427;-27.442;153.014;2023-05-24T03:54:13;6.45;;;2.47;;
64915;SDS011;51427;-27.442;153.014;2023-05-24T03:56:41;7.28;;;2.30;;
64915;SDS011;51427;-27.442;153.014;2023-05-24T03:59:09;6.47;;;2.45;;
64915;SDS011;51427;-27.442;153.014;2023-05-24T04:01:36;8.02;;;3.15;;
64915;SDS011;51427;-27.442;153.014;2023-05-24T04:04:04;6.57;;;2.65;;
64915;SDS011;51427;-27.442;153.014;2023-05-24T04:06:31;7.25;;;3.30;;
64915;SDS011;51427;-27.442;153.014;2023-05-24T04:09:01;5.95;;;2.63;;
64915;SDS011;51427;-27.442;153.014;2023-05-24T04:11:30;6.78;;;4.78;;
64915;SDS011;51427;-27.442;153.014;2023-05-24T04:13:57;5.43;;;2.55;;
64915;SDS011;51427;-27.442;153.014;2023-05-24T04:16:28;3.85;;;2.20;;
64915;SDS011;51427;-27.442;153.014;2023-05-24T04:18:58;2.97;;;2.10;;
64915;SDS011;51427;-27.442;153.014;2023-05-24T04:21:28;7.53;;;2.67;;
64915;SDS011;51427;-27.442;153.014;2023-05-24T04:23:56;8.73;;;3.08;;
64915;SDS011;51427;-27.442;153.014;2023-05-24T04:26:26;4.75;;;3.22;;
64915;SDS011;51427;-27.442;153.014;2023-05-24T04:28:54;5.88;;;2.70;;
64915;SDS011;51427;-27.442;153.014;2023-05-24T04:31:21;7.55;;;3.55;;
64915;SDS011;51427;-27.442;153.014;2023-05-24T04:33:49;5.85;;;3.10;;
64915;SDS011;51427;-27.442;153.014;2023-05-24T04:36:17;7.05;;;3.72;;
64915;SDS011;51427;-27.442;153.014;2023-05-24T04:38:44;6.40;;;3.30;;
64915;SDS011;51427;-27.442;153.014;2023-05-24T04:41:11;7.13;;;3.70;;
64915;SDS011;51427;-27.442;153.014;2023-05-24T04:43:39;9.13;;;3.97;;
64915;SDS011;51427;-27.442;153.014;2023-05-24T04:46:06;8.98;;;4.03;;
64915;SDS011;51427;-27.442;153.014;2023-05-24T04:48:33;10.00;;;3.33;;
64915;SDS011;51427;-27.442;153.014;2023-05-24T04:51:00;7.70;;;3.55;;
64915;SDS011;51427;-27.442;153.014;2023-05-24T04:53:27;7.05;;;2.97;;
64915;SDS011;51427;-27.442;153.014;2023-05-24T04:55:55;9.23;;;3.33;;
64915;SDS011;51427;-27.442;153.014;2023-05-24T04:58:22;7.43;;;3.15;;
64915;SDS011;51427;-27.442;153.014;2023-05-24T05:00:49;6.68;;;2.85;;
64915;SDS011;51427;-27.442;153.014;2023-05-24T05:03:16;6.45;;;3.10;;
64915;SDS011;51427;-27.442;153.014;2023-05-24T05:05:43;6.20;;;3.30;;
64915;SDS011;51427;-27.442;153.014;2023-05-24T05:08:11;5.80;;;2.88;;
64915;SDS011;51427;-27.442;153.014;2023-05-24T05:10:38;5.82;;;2.97;;
64915;SDS011;51427;-27.442;153.014;2023-05-24T05:13:05;5.40;;;3.08;;
64915;SDS011;51427;-27.442;153.014;2023-05-24T05:15:33;4.88;;;2.70;;
64915;SDS011;51427;-27.442;153.014;2023-05-24T05:18:00;5.97;;;2.72;;
64915;SDS011;51427;-27.442;153.014;2023-05-24T05:20:27;5.55;;;2.78;;
64915;SDS011;51427;-27.442;153.014;2023-05-24T05:22:54;6.25;;;2.70;;
64915;SDS011;51427;-27.442;153.014;2023-05-24T05:25:22;7.00;;;2.83;;
64915;SDS011;51427;-27.442;153.014;2023-05-24T05:27:49;4.10;;;2.58;;
64915;SDS011;51427;-27.442;153.014;2023-05-24T05:30:16;4.13;;;2.60;;
64915;SDS011;51427;-27.442;153.014;2023-05-24T05:32:43;5.55;;;2.38;;
64915;SDS011;51427;-27.442;153.014;2023-05-24T05:35:14;7.30;;;3.03;;
64915;SDS011;51427;-27.442;153.014;2023-05-24T05:37:42;8.65;;;3.03;;
64915;SDS011;51427;-27.442;153.014;2023-05-24T05:40:09;6.70;;;2.58;;
64915;SDS011;51427;-27.442;153.014;2023-05-24T05:42:36;5.40;;;2.90;;
64915;SDS011;51427;-27.442;153.014;2023-05-24T05:45:04;4.88;;;2.90;;
64915;SDS011;51427;-27.442;153.014;2023-05-24T05:47:32;11.90;;;3.15;;
64915;SDS011;51427;-27.442;153.014;2023-05-24T05:49:59;3.13;;;2.60;;
64915;SDS011;51427;-27.442;153.014;2023-05-24T05:52:26;7.10;;;2.97;;
64915;SDS011;51427;-27.442;153.014;2023-05-24T05:54:54;5.00;;;3.17;;
64915;SDS011;51427;-27.442;153.014;2023-05-24T05:57:21;6.95;;;3.25;;
64915;SDS011;51427;-27.442;153.014;2023-05-24T05:59:49;8.80;;;3.00;;
64915;SDS011;51427;-27.442;153.014;2023-05-24T06:02:16;9.23;;;3.20;;
64915;SDS011;51427;-27.442;153.014;2023-05-24T06:04:46;8.30;;;3.15;;
64915;SDS011;51427;-27.442;153.014;2023-05-24T06:07:14;8.07;;;2.88;;
64915;SDS011;51427;-27.442;153.014;2023-05-24T06:09:41;4.05;;;2.50;;
64915;SDS011;51427;-27.442;153.014;2023-05-24T06:12:09;7.53;;;2.42;;
64915;SDS011;51427;-27.442;153.014;2023-05-24T06:14:36;6.68;;;3.10;;
64915;SDS011;51427;-27.442;153.014;2023-05-24T06:17:04;4.93;;;2.58;;
64915;SDS011;51427;-27.442;153.014;2023-05-24T06:19:31;5.97;;;2.97;;
64915;SDS011;51427;-27.442;153.014;2023-05-24T06:21:59;6.70;;;2.65;;
64915;SDS011;51427;-27.442;153.014;2023-05-24T06:24:26;6.43;;;2.95;;
64915;SDS011;51427;-27.442;153.014;2023-05-24T06:26:54;4.80;;;3.08;;
64915;SDS011;51427;-27.442;153.014;2023-05-24T06:29:21;5.60;;;2.83;;
64915;SDS011;51427;-27.442;153.014;2023-05-24T06:31:49;7.45;;;2.92;;
64915;SDS011;51427;-27.442;153.014;2023-05-24T06:34:17;12.10;;;3.17;;
64915;SDS011;51427;-27.442;153.014;2023-05-24T06:36:48;9.23;;;2.83;;
64915;SDS011;51427;-27.442;153.014;2023-05-24T06:39:17;7.03;;;2.88;;
64915;SDS011;51427;-27.442;153.014;2023-05-24T06:41:45;9.02;;;2.95;;
64915;SDS011;51427;-27.442;153.014;2023-05-24T06:44:16;11.65;;;3.33;;
64915;SDS011;51427;-27.442;153.014;2023-05-24T06:46:43;7.97;;;3.20;;
64915;SDS011;51427;-27.442;153.014;2023-05-24T06:49:11;7.03;;;3.00;;
64915;SDS011;51427;-27.442;153.014;2023-05-24T06:51:38;6.65;;;3.13;;
64915;SDS011;51427;-27.442;153.014;2023-05-24T06:54:05;5.72;;;2.92;;
64915;SDS011;51427;-27.442;153.014;2023-05-24T06:56:32;10.05;;;3.22;;
64915;SDS011;51427;-27.442;153.014;2023-05-24T06:59:00;6.78;;;2.80;;
64915;SDS011;51427;-27.442;153.014;2023-05-24T07:01:27;14.02;;;4.03;;
64915;SDS011;51427;-27.442;153.014;2023-05-24T07:03:55;12.15;;;3.40;;
64915;SDS011;51427;-27.442;153.014;2023-05-24T07:06:22;9.90;;;3.35;;
64915;SDS011;51427;-27.442;153.014;2023-05-24T07:08:49;9.48;;;4.18;;
64915;SDS011;51427;-27.442;153.014;2023-05-24T07:11:16;7.97;;;3.05;;
64915;SDS011;51427;-27.442;153.014;2023-05-24T07:13:44;10.25;;;3.20;;
64915;SDS011;51427;-27.442;153.014;2023-05-24T07:16:11;5.82;;;3.58;;
64915;SDS011;51427;-27.442;153.014;2023-05-24T07:18:38;6.30;;;3.30;;
64915;SDS011;51427;-27.442;153.014;2023-05-24T07:21:06;8.13;;;3.25;;
64915;SDS011;51427;-27.442;153.014;2023-05-24T07:23:33;8.35;;;3.08;;
64915;SDS011;51427;-27.442;153.014;2023-05-24T07:26:02;8.98;;;3.38;;
64915;SDS011;51427;-27.442;153.014;2023-05-24T07:28:29;12.00;;;6.30;;
64915;SDS011;51427;-27.442;153.014;2023-05-24T07:30:57;11.20;;;9.05;;
64915;SDS011;51427;-27.442;153.014;2023-05-24T07:33:24;15.73;;;14.23;;
64915;SDS011;51427;-27.442;153.014;2023-05-24T07:35:51;14.40;;;11.02;;
64915;SDS011;51427;-27.442;153.014;2023-05-24T07:38:19;12.60;;;11.45;;
64915;SDS011;51427;-27.442;153.014;2023-05-24T07:40:46;12.25;;;9.10;;
64915;SDS011;51427;-27.442;153.014;2023-05-24T07:43:14;6.97;;;5.78;;
64915;SDS011;51427;-27.442;153.014;2023-05-24T07:45:41;8.45;;;6.25;;
64915;SDS011;51427;-27.442;153.014;2023-05-24T07:48:08;6.20;;;4.45;;
64915;SDS011;51427;-27.442;153.014;2023-05-24T07:50:35;7.15;;;3.97;;
64915;SDS011;51427;-27.442;153.014;2023-05-24T07:53:03;9.27;;;3.90;;
64915;SDS011;51427;-27.442;153.014;2023-05-24T07:55:30;5.80;;;3.47;;
64915;SDS011;51427;-27.442;153.014;2023-05-24T07:57:58;8.82;;;3.63;;
64915;SDS011;51427;-27.442;153.014;2023-05-24T08:00:25;7.22;;;3.83;;
64915;SDS011;51427;-27.442;153.014;2023-05-24T08:02:54;18.73;;;10.25;;
64915;SDS011;51427;-27.442;153.014;2023-05-24T08:05:21;17.92;;;7.57;;
64915;SDS011;51427;-27.442;153.014;2023-05-24T08:07:49;46.63;;;24.00;;
64915;SDS011;51427;-27.442;153.014;2023-05-24T08:10:18;47.65;;;25.70;;
64915;SDS011;51427;-27.442;153.014;2023-05-24T08:12:45;24.45;;;12.32;;
64915;SDS011;51427;-27.442;153.014;2023-05-24T08:15:14;17.45;;;8.75;;
64915;SDS011;51427;-27.442;153.014;2023-05-24T08:17:42;20.25;;;10.02;;
64915;SDS011;51427;-27.442;153.014;2023-05-24T08:20:10;9.85;;;5.18;;
64915;SDS011;51427;-27.442;153.014;2023-05-24T08:22:41;12.70;;;7.95;;
64915;SDS011;51427;-27.442;153.014;2023-05-24T08:25:09;10.68;;;6.40;;
64915;SDS011;51427;-27.442;153.014;2023-05-24T08:27:36;9.88;;;5.60;;
64915;SDS011;51427;-27.442;153.014;2023-05-24T08:30:04;14.65;;;9.48;;
64915;SDS011;51427;-27.442;153.014;2023-05-24T08:32:33;14.98;;;6.72;;
64915;SDS011;51427;-27.442;153.014;2023-05-24T08:35:00;8.77;;;5.55;;
64915;SDS011;51427;-27.442;153.014;2023-05-24T08:37:27;7.80;;;4.72;;
64915;SDS011;51427;-27.442;153.014;2023-05-24T08:39:57;7.53;;;4.60;;
64915;SDS011;51427;-27.442;153.014;2023-05-24T08:42:24;9.20;;;4.40;;
64915;SDS011;51427;-27.442;153.014;2023-05-24T08:45:03;12.27;;;5.53;;
64915;SDS011;51427;-27.442;153.014;2023-05-24T08:47:34;8.23;;;4.82;;
64915;SDS011;51427;-27.442;153.014;2023-05-24T08:50:03;8.63;;;5.07;;
64915;SDS011;51427;-27.442;153.014;2023-05-24T08:52:31;36.85;;;28.33;;
64915;SDS011;51427;-27.442;153.014;2023-05-24T08:55:01;23.00;;;16.30;;
64915;SDS011;51427;-27.442;153.014;2023-05-24T08:57:30;12.45;;;8.77;;
64915;SDS011;51427;-27.442;153.014;2023-05-24T09:00:04;13.70;;;7.57;;
64915;SDS011;51427;-27.442;153.014;2023-05-24T09:02:34;12.00;;;6.82;;
64915;SDS011;51427;-27.442;153.014;2023-05-24T09:05:10;7.60;;;5.13;;
64915;SDS011;51427;-27.442;153.014;2023-05-24T09:07:39;12.57;;;6.55;;
64915;SDS011;51427;-27.442;153.014;2023-05-24T09:10:09;247.40;;;213.02;;
64915;SDS011;51427;-27.442;153.014;2023-05-24T09:12:37;43.47;;;35.13;;
64915;SDS011;51427;-27.442;153.014;2023-05-24T09:15:06;19.60;;;15.20;;
64915;SDS011;51427;-27.442;153.014;2023-05-24T09:17:34;14.18;;;11.05;;
64915;SDS011;51427;-27.442;153.014;2023-05-24T09:20:02;15.75;;;9.18;;
64915;SDS011;51427;-27.442;153.014;2023-05-24T09:22:34;14.13;;;8.60;;
64915;SDS011;51427;-27.442;153.014;2023-05-24T09:25:05;21.25;;;15.52;;
64915;SDS011;51427;-27.442;153.014;2023-05-24T09:27:34;31.80;;;21.60;;
64915;SDS011;51427;-27.442;153.014;2023-05-24T09:30:05;18.42;;;13.63;;
64915;SDS011;51427;-27.442;153.014;2023-05-24T09:32:35;13.38;;;7.70;;
64915;SDS011;51427;-27.442;153.014;2023-05-24T09:35:02;14.40;;;8.23;;
64915;SDS011;51427;-27.442;153.014;2023-05-24T09:37:34;14.48;;;7.18;;
64915;SDS011;51427;-27.442;153.014;2023-05-24T09:40:03;9.43;;;5.85;;
64915;SDS011;51427;-27.442;153.014;2023-05-24T09:42:34;11.80;;;5.78;;
64915;SDS011;51427;-27.442;153.014;2023-05-24T09:47:35;11.13;;;7.20;;
64915;SDS011;51427;-27.442;153.014;2023-05-24T09:50:05;13.23;;;10.02;;
64915;SDS011;51427;-27.442;153.014;2023-05-24T09:52:45;10.27;;;7.78;;
64915;SDS011;51427;-27.442;153.014;2023-05-24T09:55:13;10.18;;;6.57;;
64915;SDS011;51427;-27.442;153.014;2023-05-24T09:57:48;70.90;;;53.30;;
64915;SDS011;51427;-27.442;153.014;2023-05-24T10:00:23;12.68;;;7.88;;
64915;SDS011;51427;-27.442;153.014;2023-05-24T10:03:00;21.20;;;17.55;;
64915;SDS011;51427;-27.442;153.014;2023-05-24T10:05:29;21.63;;;13.55;;
64915;SDS011;51427;-27.442;153.014;2023-05-24T10:07:57;15.68;;;10.90;;
64915;SDS011;51427;-27.442;153.014;2023-05-24T10:10:28;17.80;;;11.15;;
64915;SDS011;51427;-27.442;153.014;2023-05-24T10:12:57;11.13;;;7.65;;
64915;SDS011;51427;-27.442;153.014;2023-05-24T10:15:25;11.95;;;7.65;;
64915;SDS011;51427;-27.442;153.014;2023-05-24T10:17:52;10.80;;;7.60;;
64915;SDS011;51427;-27.442;153.014;2023-05-24T10:20:25;11.98;;;7.40;;
64915;SDS011;51427;-27.442;153.014;2023-05-24T10:23:03;9.55;;;6.78;;
64915;SDS011;51427;-27.442;153.014;2023-05-24T10:25:34;12.00;;;6.88;;
64915;SDS011;51427;-27.442;153.014;2023-05-24T10:28:10;9.80;;;6.25;;
64915;SDS011;51427;-27.442;153.014;2023-05-24T10:30:47;11.30;;;6.50;;
64915;SDS011;51427;-27.442;153.014;2023-05-24T10:33:22;13.15;;;6.78;;
64915;SDS011;51427;-27.442;153.014;2023-05-24T10:35:50;13.30;;;6.22;;
64915;SDS011;51427;-27.442;153.014;2023-05-24T10:38:21;12.38;;;6.60;;
64915;SDS011;51427;-27.442;153.014;2023-05-24T10:40:50;12.65;;;6.05;;
64915;SDS011;51427;-27.442;153.014;2023-05-24T10:43:17;8.07;;;5.70;;
64915;SDS011;51427;-27.442;153.014;2023-05-24T10:45:48;10.95;;;6.10;;
64915;SDS011;51427;-27.442;153.014;2023-05-24T10:50:44;18.98;;;10.90;;
64915;SDS011;51427;-27.442;153.014;2023-05-24T10:55:56;25.90;;;16.27;;
64915;SDS011;51427;-27.442;153.014;2023-05-24T10:58:44;14.73;;;10.48;;
64915;SDS011;51427;-27.442;153.014;2023-05-24T11:04:11;10.90;;;6.95;;
64915;SDS011;51427;-27.442;153.014;2023-05-24T11:09:17;16.88;;;9.85;;
64915;SDS011;51427;-27.442;153.014;2023-05-24T11:11:45;11.43;;;6.70;;
64915;SDS011;51427;-27.442;153.014;2023-05-24T11:14:18;29.65;;;13.98;;
64915;SDS011;51427;-27.442;153.014;2023-05-24T11:16:48;20.33;;;11.43;;
64915;SDS011;51427;-27.442;153.014;2023-05-24T11:21:45;10.50;;;6.28;;
64915;SDS011;51427;-27.442;153.014;2023-05-24T11:24:17;9.05;;;5.68;;
64915;SDS011;51427;-27.442;153.014;2023-05-24T11:26:45;13.02;;;7.28;;
64915;SDS011;51427;-27.442;153.014;2023-05-24T11:29:15;12.07;;;6.40;;
64915;SDS011;51427;-27.442;153.014;2023-05-24T11:31:47;11.98;;;6.25;;
64915;SDS011;51427;-27.442;153.014;2023-05-24T11:34:30;11.50;;;7.03;;
64915;SDS011;51427;-27.442;153.014;2023-05-24T11:36:58;14.45;;;8.23;;
64915;SDS011;51427;-27.442;153.014;2023-05-24T11:39:34;19.15;;;10.45;;
64915;SDS011;51427;-27.442;153.014;2023-05-24T11:42:06;15.02;;;8.27;;
64915;SDS011;51427;-27.442;153.014;2023-05-24T11:44:34;15.82;;;8.20;;
64915;SDS011;51427;-27.442;153.014;2023-05-24T11:47:06;11.32;;;7.03;;
64915;SDS011;51427;-27.442;153.014;2023-05-24T11:49:33;11.27;;;6.60;;
64915;SDS011;51427;-27.442;153.014;2023-05-24T11:52:01;10.20;;;6.20;;
64915;SDS011;51427;-27.442;153.014;2023-05-24T11:54:28;8.77;;;5.88;;
64915;SDS011;51427;-27.442;153.014;2023-05-24T11:57:00;10.70;;;5.93;;
64915;SDS011;51427;-27.442;153.014;2023-05-24T11:59:28;12.13;;;6.55;;
64915;SDS011;51427;-27.442;153.014;2023-05-24T12:02:02;13.10;;;8.00;;
64915;SDS011;51427;-27.442;153.014;2023-05-24T12:04:30;13.95;;;7.85;;
64915;SDS011;51427;-27.442;153.014;2023-05-24T12:06:59;20.52;;;9.55;;
64915;SDS011;51427;-27.442;153.014;2023-05-24T12:09:27;15.77;;;8.38;;
64915;SDS011;51427;-27.442;153.014;2023-05-24T12:11:54;12.02;;;6.75;;
64915;SDS011;51427;-27.442;153.014;2023-05-24T12:14:27;9.60;;;6.35;;
64915;SDS011;51427;-27.442;153.014;2023-05-24T12:16:58;10.90;;;6.35;;
64915;SDS011;51427;-27.442;153.014;2023-05-24T12:19:29;11.25;;;6.28;;
64915;SDS011;51427;-27.442;153.014;2023-05-24T12:22:02;11.45;;;6.32;;
64915;SDS011;51427;-27.442;153.014;2023-05-24T12:24:31;8.63;;;5.72;;
64915;SDS011;51427;-27.442;153.014;2023-05-24T12:27:00;9.90;;;5.75;;
64915;SDS011;51427;-27.442;153.014;2023-05-24T12:29:35;8.35;;;5.68;;
64915;SDS011;51427;-27.442;153.014;2023-05-24T12:32:05;10.02;;;5.85;;
64915;SDS011;51427;-27.442;153.014;2023-05-24T12:34:39;9.90;;;6.70;;
64915;SDS011;51427;-27.442;153.014;2023-05-24T12:37:07;13.48;;;8.27;;
64915;SDS011;51427;-27.442;153.014;2023-05-24T12:39:36;15.57;;;8.48;;
64915;SDS011;51427;-27.442;153.014;2023-05-24T12:42:07;27.65;;;17.25;;
64915;SDS011;51427;-27.442;153.014;2023-05-24T12:44:40;17.98;;;11.52;;
64915;SDS011;51427;-27.442;153.014;2023-05-24T12:47:09;14.30;;;8.63;;
64915;SDS011;51427;-27.442;153.014;2023-05-24T12:49:37;11.32;;;7.18;;
64915;SDS011;51427;-27.442;153.014;2023-05-24T12:52:05;12.10;;;7.55;;
64915;SDS011;51427;-27.442;153.014;2023-05-24T12:54:32;11.50;;;6.80;;
64915;SDS011;51427;-27.442;153.014;2023-05-24T12:57:00;15.70;;;8.15;;
64915;SDS011;51427;-27.442;153.014;2023-05-24T12:59:28;12.02;;;6.57;;
64915;SDS011;51427;-27.442;153.014;2023-05-24T13:01:56;23.17;;;13.77;;
64915;SDS011;51427;-27.442;153.014;2023-05-24T13:04:23;10.02;;;6.30;;
64915;SDS011;51427;-27.442;153.014;2023-05-24T13:06:54;9.40;;;6.15;;
64915;SDS011;51427;-27.442;153.014;2023-05-24T13:09:22;8.93;;;5.40;;
64915;SDS011;51427;-27.442;153.014;2023-05-24T13:11:50;12.40;;;7.82;;
64915;SDS011;51427;-27.442;153.014;2023-05-24T13:14:18;9.65;;;6.20;;
64915;SDS011;51427;-27.442;153.014;2023-05-24T13:16:46;8.50;;;5.65;;
64915;SDS011;51427;-27.442;153.014;2023-05-24T13:19:14;10.20;;;5.80;;
64915;SDS011;51427;-27.442;153.014;2023-05-24T13:21:42;8.80;;;4.90;;
64915;SDS011;51427;-27.442;153.014;2023-05-24T13:24:11;10.65;;;6.15;;
64915;SDS011;51427;-27.442;153.014;2023-05-24T13:26:40;8.85;;;5.22;;
64915;SDS011;51427;-27.442;153.014;2023-05-24T13:29:11;8.57;;;4.68;;
64915;SDS011;51427;-27.442;153.014;2023-05-24T13:31:39;7.53;;;5.00;;
64915;SDS011;51427;-27.442;153.014;2023-05-24T13:34:06;7.95;;;5.13;;
64915;SDS011;51427;-27.442;153.014;2023-05-24T13:36:37;8.40;;;4.97;;
64915;SDS011;51427;-27.442;153.014;2023-05-24T13:39:05;9.50;;;5.38;;
64915;SDS011;51427;-27.442;153.014;2023-05-24T13:41:34;7.20;;;4.70;;
64915;SDS011;51427;-27.442;153.014;2023-05-24T13:44:03;8.35;;;5.13;;
64915;SDS011;51427;-27.442;153.014;2023-05-24T13:46:32;7.40;;;5.10;;
64915;SDS011;51427;-27.442;153.014;2023-05-24T13:49:01;7.57;;;4.43;;
64915;SDS011;51427;-27.442;153.014;2023-05-24T13:51:31;9.77;;;4.60;;
64915;SDS011;51427;-27.442;153.014;2023-05-24T13:53:59;8.43;;;4.35;;
64915;SDS011;51427;-27.442;153.014;2023-05-24T13:56:32;6.35;;;4.00;;
64915;SDS011;51427;-27.442;153.014;2023-05-24T13:59:00;7.55;;;4.25;;
64915;SDS011;51427;-27.442;153.014;2023-05-24T14:01:29;7.95;;;4.85;;
64915;SDS011;51427;-27.442;153.014;2023-05-24T14:04:00;14.88;;;6.60;;
64915;SDS011;51427;-27.442;153.014;2023-05-24T14:06:31;12.93;;;6.28;;
64915;SDS011;51427;-27.442;153.014;2023-05-24T14:08:59;8.23;;;5.25;;
64915;SDS011;51427;-27.442;153.014;2023-05-24T14:11:27;11.65;;;6.18;;
64915;SDS011;51427;-27.442;153.014;2023-05-24T14:13:59;140.23;;;73.45;;
64915;SDS011;51427;-27.442;153.014;2023-05-24T14:16:27;34.78;;;18.85;;
64915;SDS011;51427;-27.442;153.014;2023-05-24T14:18:55;24.08;;;13.40;;
64915;SDS011;51427;-27.442;153.014;2023-05-24T14:21:23;11.52;;;6.45;;
64915;SDS011;51427;-27.442;153.014;2023-05-24T14:23:51;11.48;;;6.22;;
64915;SDS011;51427;-27.442;153.014;2023-05-24T14:26:19;78.70;;;50.17;;
64915;SDS011;51427;-27.442;153.014;2023-05-24T14:28:49;43.20;;;26.33;;
64915;SDS011;51427;-27.442;153.014;2023-05-24T14:31:17;93.18;;;58.38;;
64915;SDS011;51427;-27.442;153.014;2023-05-24T14:33:44;258.10;;;136.10;;
64915;SDS011;51427;-27.442;153.014;2023-05-24T14:36:12;344.13;;;184.43;;
64915;SDS011;51427;-27.442;153.014;2023-05-24T14:38:40;170.60;;;95.97;;
64915;SDS011;51427;-27.442;153.014;2023-05-24T14:41:08;40.88;;;22.70;;
64915;SDS011;51427;-27.442;153.014;2023-05-24T14:43:35;64.03;;;36.10;;
64915;SDS011;51427;-27.442;153.014;2023-05-24T14:46:05;15.40;;;7.60;;
64915;SDS011;51427;-27.442;153.014;2023-05-24T14:48:32;56.40;;;36.60;;
64915;SDS011;51427;-27.442;153.014;2023-05-24T14:51:02;16.65;;;9.38;;
64915;SDS011;51427;-27.442;153.014;2023-05-24T14:53:38;11.65;;;7.22;;